Time;durP1;ratioP1;P1;durP2;ratioP2;P2;SDS_P1;SDS_P2;PMS_P1;PMS_P2;Temp;Humidity;BMP_temperature;BMP_pressure;BME280_temperature;BME280_humidity;BME280_pressure;Samples;Min_cycle;Max_cycle;Signal;HPM_P1;HPM_P2
2022/12/22 03:25:53;;;;;;;25.80;14.63;;;8.40;99.90;;;;;;5030373;28;20223;-68
2022/12/22 03:28:21;;;;;;;24.97;16.00;;;8.40;99.90;;;;;;5054010;28;20216;-68
2022/12/22 03:30:54;;;;;;;25.00;15.30;;;8.40;99.90;;;;;;5050038;28;20205;-68
2022/12/22 03:33:23;;;;;;;29.77;16.87;;;8.50;99.90;;;;;;5039657;28;20331;-68
2022/12/22 03:35:50;;;;;;;28.47;16.63;;;8.50;99.90;;;;;;5049787;28;22235;-68
2022/12/22 03:38:17;;;;;;;26.20;15.50;;;8.50;99.90;;;;;;5056116;28;20338;-68
2022/12/22 03:40:44;;;;;;;23.30;15.50;;;8.50;99.90;;;;;;5026876;28;20205;-68
2022/12/22 03:51:32;;;;;;;28.87;16.40;;;8.50;99.90;;;;;;5056436;28;20200;-68
2022/12/22 03:53:59;;;;;;;29.37;17.27;;;8.60;99.90;;;;;;5032878;28;21392;-68
2022/12/22 03:56:26;;;;;;;31.57;16.70;;;8.60;99.90;;;;;;5062418;28;21070;-67
2022/12/22 03:58:53;;;;;;;26.03;15.83;;;8.60;99.90;;;;;;5053443;28;20231;-68
2022/12/22 04:01:19;;;;;;;28.20;17.70;;;8.50;99.90;;;;;;5062510;28;20283;-68
2022/12/22 04:03:47;;;;;;;28.60;17.50;;;8.50;99.90;;;;;;5041802;28;20371;-68
2022/12/22 04:06:16;;;;;;;24.83;16.63;;;8.60;99.90;;;;;;5066415;28;20212;-68
2022/12/22 04:08:42;;;;;;;27.70;16.50;;;8.50;99.90;;;;;;5014153;28;20214;-68
2022/12/22 04:13:55;;;;;;;28.43;17.10;;;8.60;99.90;;;;;;5058284;28;20460;-67
2022/12/22 04:16:21;;;;;;;28.67;16.40;;;8.60;99.90;;;;;;5049019;28;20299;-67
2022/12/22 04:18:48;;;;;;;29.37;17.57;;;8.60;99.90;;;;;;5049900;28;20231;-68
2022/12/22 04:21:17;;;;;;;28.87;16.33;;;8.60;99.90;;;;;;5066240;28;21209;-68
2022/12/22 04:23:43;;;;;;;24.77;15.77;;;8.60;99.90;;;;;;5050180;28;22145;-68
2022/12/22 04:26:10;;;;;;;25.53;16.17;;;8.60;99.90;;;;;;5036092;28;20296;-67
2022/12/22 04:28:37;;;;;;;27.37;16.10;;;8.50;99.90;;;;;;5061123;28;20335;-68
2022/12/22 04:31:04;;;;;;;27.67;15.60;;;8.60;99.90;;;;;;5042566;28;21042;-68
2022/12/22 04:33:31;;;;;;;26.67;16.00;;;8.60;99.90;;;;;;5045683;28;20231;-68
2022/12/22 04:35:58;;;;;;;25.13;16.47;;;8.50;99.90;;;;;;5047121;28;20705;-68
2022/12/22 04:38:26;;;;;;;29.40;17.50;;;8.60;99.90;;;;;;5052342;28;20292;-68
2022/12/22 04:40:53;;;;;;;24.83;14.83;;;8.60;99.90;;;;;;5029486;28;20273;-68
2022/12/22 04:43:20;;;;;;;26.67;15.97;;;8.60;99.90;;;;;;5058224;28;20291;-68
2022/12/22 04:45:47;;;;;;;26.27;16.13;;;8.60;99.90;;;;;;5046658;28;20672;-68
2022/12/22 04:48:13;;;;;;;26.70;16.80;;;8.60;99.90;;;;;;5059249;28;20323;-68
2022/12/22 04:50:40;;;;;;;26.33;16.10;;;8.60;99.90;;;;;;5031535;28;20370;-67
2022/12/22 04:53:07;;;;;;;24.30;16.10;;;8.50;99.90;;;;;;5046437;28;20224;-68
2022/12/22 04:55:35;;;;;;;26.90;16.77;;;8.50;99.90;;;;;;5023831;28;20217;-68
2022/12/22 04:58:02;;;;;;;30.20;16.70;;;8.60;99.90;;;;;;5055546;28;20308;-68
2022/12/22 05:00:31;;;;;;;25.55;15.63;;;8.50;99.90;;;;;;5044514;28;20369;-68
2022/12/22 05:02:58;;;;;;;26.07;16.50;;;8.40;99.90;;;;;;5062777;28;20208;-68
2022/12/22 05:05:25;;;;;;;27.13;15.63;;;8.60;99.90;;;;;;5045535;28;20373;-68
2022/12/22 05:07:52;;;;;;;29.77;16.70;;;8.50;99.90;;;;;;5047722;28;20295;-68
2022/12/22 05:10:19;;;;;;;28.43;16.73;;;8.50;99.90;;;;;;5060603;28;20635;-68
2022/12/22 05:12:56;;;;;;;25.87;16.23;;;8.60;99.90;;;;;;5031909;28;20350;-68
2022/12/22 05:15:25;;;;;;;27.70;16.50;;;8.60;99.90;;;;;;5061987;28;21038;-68
2022/12/22 05:17:51;;;;;;;25.50;16.63;;;8.60;99.90;;;;;;5046685;28;20227;-68
2022/12/22 05:20:19;;;;;;;30.17;15.88;;;8.60;99.90;;;;;;5054098;28;20664;-68
2022/12/22 05:22:46;;;;;;;33.10;17.37;;;8.60;99.90;;;;;;5035973;28;20499;-69
2022/12/22 05:25:15;;;;;;;27.27;16.05;;;8.60;99.90;;;;;;5049361;28;20618;-66
2022/12/22 05:27:42;;;;;;;24.53;15.60;;;8.60;99.90;;;;;;5024492;28;20827;-67
2022/12/22 05:30:12;;;;;;;25.63;16.03;;;8.60;99.90;;;;;;5048471;28;20215;-68
2022/12/22 05:32:38;;;;;;;26.00;15.53;;;8.60;99.90;;;;;;5040934;28;20803;-68
2022/12/22 05:35:07;;;;;;;27.50;15.83;;;8.60;99.90;;;;;;5046641;28;20321;-68
2022/12/22 05:37:34;;;;;;;26.00;15.80;;;8.60;99.90;;;;;;5036696;28;20374;-68
2022/12/22 05:40:00;;;;;;;21.93;14.90;;;8.60;99.90;;;;;;5049096;28;20577;-68
2022/12/22 05:42:36;;;;;;;23.87;14.97;;;8.60;99.90;;;;;;5028852;28;20327;-68
2022/12/22 05:45:12;;;;;;;23.88;13.63;;;8.60;99.90;;;;;;5057259;28;20397;-68
2022/12/22 05:47:39;;;;;;;25.20;15.07;;;8.60;99.90;;;;;;5039891;28;20631;-67
2022/12/22 05:50:08;;;;;;;24.00;14.95;;;8.60;99.90;;;;;;5014659;28;20266;-67
2022/12/22 05:52:35;;;;;;;23.13;14.67;;;8.60;99.90;;;;;;4981662;28;22144;-67
2022/12/22 05:55:02;;;;;;;22.60;14.63;;;8.60;99.90;;;;;;4993258;28;20368;-67
2022/12/22 05:57:29;;;;;;;21.67;13.73;;;8.60;99.90;;;;;;4984666;28;20276;-68
2022/12/22 05:59:56;;;;;;;24.43;14.57;;;8.60;99.90;;;;;;5006202;28;20428;-68
2022/12/22 06:02:24;;;;;;;24.38;14.65;;;8.60;99.90;;;;;;5000276;28;20296;-68
2022/12/22 06:04:51;;;;;;;23.45;14.18;;;8.60;99.90;;;;;;5007695;28;20506;-68
2022/12/22 06:07:18;;;;;;;22.90;13.60;;;8.60;99.90;;;;;;5006496;28;20233;-68
2022/12/22 06:09:45;;;;;;;23.05;14.27;;;8.60;99.90;;;;;;4986042;28;20466;-68
2022/12/22 06:12:13;;;;;;;20.98;13.57;;;8.60;99.90;;;;;;5000163;28;20222;-68
2022/12/22 06:14:40;;;;;;;19.83;12.57;;;8.60;99.90;;;;;;4983102;28;20859;-68
2022/12/22 06:17:06;;;;;;;25.42;14.13;;;8.60;99.90;;;;;;4994266;28;20287;-68
2022/12/22 06:19:35;;;;;;;26.38;13.63;;;8.60;99.90;;;;;;5006336;28;20665;-68
2022/12/22 06:22:02;;;;;;;18.42;11.35;;;8.60;99.90;;;;;;5013896;28;20253;-68
2022/12/22 06:24:29;;;;;;;14.05;6.15;;;8.60;99.90;;;;;;5000415;28;20324;-68
2022/12/22 06:26:55;;;;;;;20.58;13.70;;;9.00;99.90;;;;;;5010293;28;20308;-68
2022/12/22 06:29:22;;;;;;;21.17;14.25;;;9.30;99.90;;;;;;4979322;28;20206;-68
2022/12/22 06:31:49;;;;;;;19.88;13.85;;;9.20;99.90;;;;;;5013147;28;20949;-68
2022/12/22 06:34:17;;;;;;;18.95;13.30;;;9.10;99.90;;;;;;5007764;28;20640;-68
2022/12/22 06:36:45;;;;;;;19.87;13.20;;;8.90;99.90;;;;;;5011909;28;20303;-68
2022/12/22 06:39:13;;;;;;;18.23;12.73;;;8.80;99.90;;;;;;5018823;28;20331;-68
2022/12/22 06:44:24;;;;;;;23.15;13.27;;;8.70;99.90;;;;;;4975200;28;20248;-68
2022/12/22 06:46:51;;;;;;;21.30;13.55;;;8.70;99.90;;;;;;5007247;28;20341;-68
2022/12/22 06:49:18;;;;;;;23.17;13.18;;;8.60;99.90;;;;;;5006640;28;20518;-68
2022/12/22 06:51:46;;;;;;;22.80;12.48;;;8.70;99.90;;;;;;5022006;28;20352;-68
2022/12/22 06:54:14;;;;;;;20.42;13.40;;;8.70;99.90;;;;;;5005999;28;22830;-68
2022/12/22 06:56:40;;;;;;;19.02;13.15;;;8.60;99.90;;;;;;4998920;28;20735;-67
2022/12/22 06:59:07;;;;;;;19.25;13.15;;;8.60;99.90;;;;;;5003678;28;21014;-68
2022/12/22 07:01:34;;;;;;;23.17;13.40;;;8.60;99.90;;;;;;4990977;28;20305;-66
2022/12/22 07:04:01;;;;;;;21.10;13.93;;;8.60;99.90;;;;;;5016551;28;20496;-67
2022/12/22 07:06:28;;;;;;;23.88;13.50;;;8.60;99.90;;;;;;5002854;28;20477;-68
2022/12/22 07:08:56;;;;;;;21.58;14.55;;;8.60;99.90;;;;;;4996038;28;20293;-68
2022/12/22 07:11:23;;;;;;;18.63;12.93;;;8.60;99.90;;;;;;4984476;28;23960;-68
2022/12/22 07:13:50;;;;;;;24.33;14.73;;;8.70;99.90;;;;;;5000263;28;20356;-68
2022/12/22 07:16:17;;;;;;;22.77;14.27;;;8.70;99.90;;;;;;4991257;28;20866;-68
2022/12/22 07:18:43;;;;;;;21.27;13.27;;;8.80;99.90;;;;;;5021600;28;20289;-67
2022/12/22 07:21:12;;;;;;;24.77;14.75;;;8.70;99.90;;;;;;5014192;28;20429;-67
2022/12/22 07:23:40;;;;;;;20.92;12.90;;;8.70;99.90;;;;;;5021852;28;20327;-68
2022/12/22 07:26:10;;;;;;;22.80;14.43;;;8.70;99.90;;;;;;4995439;28;20746;-68
2022/12/22 07:28:39;;;;;;;25.17;14.70;;;8.60;99.90;;;;;;4998374;28;20288;-68
2022/12/22 07:31:07;;;;;;;23.17;13.68;;;8.70;99.90;;;;;;4987346;28;21091;-68
2022/12/22 07:33:34;;;;;;;22.97;14.93;;;8.70;99.90;;;;;;5014333;28;20821;-68
2022/12/22 07:36:03;;;;;;;25.37;15.03;;;8.70;99.90;;;;;;5013322;28;20309;-68
2022/12/22 07:38:32;;;;;;;24.27;14.47;;;8.60;99.90;;;;;;5021245;28;20202;-68
2022/12/22 07:40:59;;;;;;;25.03;15.53;;;8.70;99.90;;;;;;4995173;28;20215;-68
2022/12/22 07:43:26;;;;;;;25.15;14.57;;;8.60;99.90;;;;;;5007564;28;20355;-68
2022/12/22 07:45:53;;;;;;;22.27;14.57;;;8.60;99.90;;;;;;5007099;28;20336;-68
2022/12/22 07:51:06;;;;;;;24.77;14.77;;;8.60;99.90;;;;;;5035438;28;20563;-68
2022/12/22 07:53:34;;;;;;;25.00;15.38;;;8.70;99.90;;;;;;5041988;28;20197;-68
2022/12/22 07:56:04;;;;;;;27.63;16.50;;;8.70;99.90;;;;;;5013874;28;20197;-68
2022/12/22 07:58:33;;;;;;;24.27;15.60;;;8.70;99.90;;;;;;5030686;28;20312;-68
2022/12/22 08:01:00;;;;;;;25.33;15.38;;;8.70;99.90;;;;;;5027204;28;20304;-68
2022/12/22 08:03:27;;;;;;;30.98;17.23;;;8.70;99.90;;;;;;5012570;28;20636;-69
2022/12/22 08:05:54;;;;;;;26.53;16.43;;;8.80;99.90;;;;;;5039825;28;20316;-69
2022/12/22 08:08:21;;;;;;;27.67;17.13;;;8.80;99.90;;;;;;5038801;28;20334;-69
2022/12/22 08:10:48;;;;;;;27.97;16.83;;;8.70;99.90;;;;;;5033017;28;20232;-69
2022/12/22 08:13:15;;;;;;;26.45;17.00;;;8.70;99.90;;;;;;5020492;28;20293;-69
2022/12/22 08:15:43;;;;;;;27.00;16.73;;;8.70;99.90;;;;;;5022219;28;20392;-69
2022/12/22 08:18:10;;;;;;;25.30;15.47;;;8.70;99.90;;;;;;5006845;28;20627;-69
2022/12/22 08:20:37;;;;;;;29.10;15.50;;;8.80;99.90;;;;;;5040589;28;20626;-69
2022/12/22 08:23:04;;;;;;;30.80;15.90;;;8.70;99.90;;;;;;5039276;28;20698;-69
2022/12/22 08:25:33;;;;;;;26.53;15.97;;;8.70;99.90;;;;;;5040839;28;20317;-69
2022/12/22 08:28:00;;;;;;;26.10;16.90;;;8.70;99.90;;;;;;5014505;28;20302;-69
2022/12/22 08:30:27;;;;;;;24.90;14.45;;;8.70;99.90;;;;;;5012412;28;20296;-68
2022/12/22 08:32:55;;;;;;;24.80;14.15;;;8.70;99.90;;;;;;4999327;28;20529;-68
2022/12/22 08:35:22;;;;;;;32.63;13.87;;;8.70;99.90;;;;;;5038802;28;20706;-68
2022/12/22 08:37:50;;;;;;;25.98;15.38;;;8.60;99.90;;;;;;5021701;28;21033;-68
2022/12/22 08:40:22;;;;;;;23.80;14.57;;;8.60;99.90;;;;;;5026936;28;20307;-68
2022/12/22 08:42:51;;;;;;;23.27;14.70;;;8.70;99.90;;;;;;5017049;28;20626;-68
2022/12/22 08:45:18;;;;;;;24.73;14.37;;;8.60;99.90;;;;;;5022654;28;20225;-69
2022/12/22 08:47:45;;;;;;;20.80;13.53;;;8.70;99.90;;;;;;5029948;28;20213;-68
2022/12/22 08:50:13;;;;;;;25.57;16.13;;;8.70;99.90;;;;;;5009390;28;20225;-69
2022/12/22 08:52:40;;;;;;;23.83;14.23;;;8.60;99.90;;;;;;5019899;28;20948;-69
2022/12/22 08:55:08;;;;;;;25.77;15.10;;;8.70;99.90;;;;;;5033790;28;21543;-68
2022/12/22 08:57:36;;;;;;;24.13;14.25;;;8.60;99.90;;;;;;5023835;28;20605;-69
2022/12/22 09:00:04;;;;;;;23.35;13.48;;;8.60;99.90;;;;;;5016748;28;20221;-69
2022/12/22 09:02:32;;;;;;;23.58;12.52;;;8.60;99.90;;;;;;5012302;28;20213;-69
2022/12/22 09:04:58;;;;;;;23.38;14.48;;;8.50;99.90;;;;;;5015128;28;21147;-69
2022/12/22 09:07:27;;;;;;;22.70;13.90;;;8.50;99.90;;;;;;5019237;28;20407;-69
2022/12/22 09:09:56;;;;;;;22.65;14.13;;;8.50;99.90;;;;;;5030634;28;20310;-69
2022/12/22 09:12:23;;;;;;;21.93;13.73;;;8.50;99.90;;;;;;5029084;28;20201;-69
2022/12/22 09:14:50;;;;;;;26.97;15.70;;;8.60;99.90;;;;;;5022119;28;20720;-69
2022/12/22 09:17:17;;;;;;;26.07;15.30;;;8.60;99.90;;;;;;5015595;28;20221;-69
2022/12/22 09:19:43;;;;;;;28.60;15.23;;;8.60;99.90;;;;;;4992437;28;20759;-69
2022/12/22 09:22:11;;;;;;;21.70;13.17;;;8.60;99.90;;;;;;5041924;28;20232;-71
2022/12/22 09:24:39;;;;;;;23.80;13.83;;;8.70;99.90;;;;;;5024296;28;20228;-69
2022/12/22 09:27:07;;;;;;;24.57;15.00;;;8.70;99.90;;;;;;5036850;28;20396;-69
2022/12/22 09:29:35;;;;;;;22.67;13.83;;;8.80;99.90;;;;;;5021579;28;20239;-69
2022/12/22 09:32:02;;;;;;;24.97;13.67;;;8.70;99.90;;;;;;5019007;28;20894;-68
2022/12/22 09:34:28;;;;;;;27.20;13.83;;;8.70;99.90;;;;;;4995919;28;20463;-69
2022/12/22 09:36:55;;;;;;;27.40;13.10;;;8.70;99.90;;;;;;5036431;28;20351;-69
2022/12/22 09:39:22;;;;;;;24.90;13.13;;;8.80;99.90;;;;;;5019722;28;20389;-68
2022/12/22 09:41:53;;;;;;;22.90;13.20;;;8.80;99.90;;;;;;5028062;28;20312;-68
2022/12/22 09:44:24;;;;;;;31.90;13.87;;;8.80;99.90;;;;;;5033310;28;20284;-69
2022/12/22 09:46:53;;;;;;;25.00;14.37;;;8.90;99.90;;;;;;5014571;28;20228;-68
2022/12/22 09:49:21;;;;;;;22.83;12.47;;;8.90;99.90;;;;;;5024402;28;23485;-68
2022/12/22 09:51:51;;;;;;;21.77;12.48;;;8.90;99.90;;;;;;4983970;28;20232;-69
2022/12/22 09:54:17;;;;;;;20.10;11.43;;;8.90;99.90;;;;;;5021064;28;23320;-69
2022/12/22 09:56:44;;;;;;;23.13;12.37;;;8.90;99.90;;;;;;5015074;28;20886;-69
2022/12/22 09:59:15;;;;;;;24.48;12.73;;;8.90;99.90;;;;;;5019494;28;20294;-69
2022/12/22 10:01:58;;;;;;;23.27;12.50;;;9.10;99.90;;;;;;5025636;28;20308;-69
2022/12/22 10:04:40;;;;;;;21.30;11.63;;;9.10;99.90;;;;;;5024127;28;20217;-70
2022/12/22 10:07:20;;;;;;;21.30;11.83;;;9.10;99.90;;;;;;5021416;28;20604;-70
2022/12/22 10:09:47;;;;;;;19.70;11.27;;;9.10;99.90;;;;;;5033423;28;20247;-69
2022/12/22 10:12:16;;;;;;;24.50;12.75;;;9.20;99.90;;;;;;5020220;28;20241;-69
2022/12/22 10:14:47;;;;;;;20.83;11.87;;;9.20;99.90;;;;;;5033597;28;20408;-69
2022/12/22 10:17:19;;;;;;;18.07;10.97;;;9.20;99.90;;;;;;5022092;28;20222;-69
2022/12/22 10:19:48;;;;;;;17.17;10.27;;;9.20;99.90;;;;;;5027417;28;20326;-69
2022/12/22 10:22:29;;;;;;;17.70;9.70;;;9.10;99.90;;;;;;5012886;28;20235;-69
2022/12/22 10:24:56;;;;;;;15.03;9.23;;;9.00;99.90;;;;;;5037156;28;20251;-69
2022/12/22 10:27:26;;;;;;;17.67;9.70;;;9.00;99.90;;;;;;5015288;28;20384;-69
2022/12/22 10:29:55;;;;;;;17.23;9.07;;;8.90;99.90;;;;;;5042294;28;20244;-69
2022/12/22 10:32:22;;;;;;;16.57;10.33;;;8.90;99.90;;;;;;5038676;28;20325;-69
2022/12/22 10:35:00;;;;;;;18.53;9.53;;;8.90;99.90;;;;;;5018376;28;20315;-69
2022/12/22 10:37:36;;;;;;;18.27;8.87;;;9.00;99.90;;;;;;5018553;28;20273;-68
2022/12/22 10:40:15;;;;;;;18.37;9.13;;;9.00;99.90;;;;;;5031096;28;20799;-69
2022/12/22 10:42:46;;;;;;;17.93;9.60;;;8.90;99.90;;;;;;5017882;28;20325;-69
2022/12/22 10:45:20;;;;;;;16.17;8.63;;;8.80;99.90;;;;;;5020749;28;21721;-69
2022/12/22 10:47:49;;;;;;;18.13;8.32;;;8.80;99.90;;;;;;5023559;28;20462;-68
2022/12/22 10:50:17;;;;;;;17.70;7.97;;;8.60;99.90;;;;;;5013035;23;20707;-69
2022/12/22 10:52:50;;;;;;;19.10;7.97;;;8.70;99.90;;;;;;4950608;28;20321;-69
2022/12/22 10:55:19;;;;;;;20.07;9.63;;;8.70;99.90;;;;;;4987678;28;20224;-68
2022/12/22 10:57:47;;;;;;;15.97;7.83;;;8.60;99.90;;;;;;4994140;28;20901;-69
2022/12/22 11:00:28;;;;;;;19.27;8.10;;;8.60;99.90;;;;;;4978577;28;21526;-69
2022/12/22 11:02:56;;;;;;;15.27;8.43;;;8.50;99.90;;;;;;4987481;28;20225;-69
2022/12/22 11:05:23;;;;;;;14.77;8.00;;;8.50;99.90;;;;;;4984602;28;21278;-69
2022/12/22 11:07:50;;;;;;;15.93;8.13;;;8.50;99.90;;;;;;4977381;28;20569;-68
2022/12/22 11:10:23;;;;;;;17.23;9.27;;;8.50;99.90;;;;;;5010880;28;20252;-69
2022/12/22 11:13:05;;;;;;;19.50;8.52;;;8.60;99.90;;;;;;4999773;28;20296;-68
2022/12/22 11:15:38;;;;;;;14.10;8.60;;;8.60;99.90;;;;;;5008289;28;20365;-69
2022/12/22 11:18:15;;;;;;;15.88;8.02;;;8.60;99.90;;;;;;4997457;28;20290;-69
2022/12/22 11:20:55;;;;;;;21.37;8.97;;;8.50;99.90;;;;;;4990543;28;20301;-68
2022/12/22 11:23:30;;;;;;;15.77;8.93;;;8.60;99.90;;;;;;4974762;28;21214;-68
2022/12/22 11:26:09;;;;;;;15.87;8.03;;;8.60;99.90;;;;;;5012592;28;20289;-68
2022/12/22 11:28:51;;;;;;;16.23;8.43;;;8.50;99.90;;;;;;5005482;28;20306;-68
2022/12/22 11:31:30;;;;;;;14.10;7.83;;;8.60;99.90;;;;;;4998247;28;20406;-68
2022/12/22 11:34:09;;;;;;;20.93;8.40;;;8.60;99.90;;;;;;5003572;28;20297;-69
2022/12/22 11:36:50;;;;;;;14.37;8.37;;;8.60;99.90;;;;;;5000018;28;20738;-69
2022/12/22 11:39:24;;;;;;;20.80;7.57;;;8.60;99.90;;;;;;4975432;28;20344;-68
2022/12/22 11:42:02;;;;;;;15.27;8.33;;;8.60;99.90;;;;;;5013161;28;20774;-68
2022/12/22 11:44:45;;;;;;;14.93;8.30;;;8.60;99.90;;;;;;5002604;28;20210;-68
2022/12/22 11:47:25;;;;;;;13.83;7.80;;;8.60;99.90;;;;;;4986870;28;20838;-68
2022/12/22 11:50:15;;;;;;;16.07;7.67;;;8.60;99.90;;;;;;4959057;28;20226;-69
2022/12/22 11:52:53;;;;;;;15.57;7.07;;;8.60;99.90;;;;;;4978372;28;20232;-68
2022/12/22 11:55:29;;;;;;;17.20;6.50;;;8.60;99.90;;;;;;4961449;28;21046;-68
2022/12/22 11:58:20;;;;;;;22.13;7.73;;;8.60;99.90;;;;;;5001091;28;20278;-68
2022/12/22 12:00:55;;;;;;;18.27;7.27;;;8.60;99.90;;;;;;4967249;28;20313;-68
2022/12/22 12:03:55;;;;;;;12.73;6.60;;;8.60;99.90;;;;;;4985196;28;20321;-68
2022/12/22 12:06:37;;;;;;;13.80;6.13;;;8.70;99.90;;;;;;4972390;28;20284;-68
2022/12/22 12:09:21;;;;;;;19.43;6.00;;;8.70;99.90;;;;;;4997632;28;21296;-69
2022/12/22 12:11:54;;;;;;;18.63;7.30;;;8.60;99.90;;;;;;4978236;28;22204;-68
2022/12/22 12:14:27;;;;;;;14.90;6.70;;;8.70;99.90;;;;;;4997149;28;20360;-68
2022/12/22 12:16:59;;;;;;;15.37;8.37;;;8.70;99.90;;;;;;4975190;28;20221;-68
2022/12/22 12:20:08;;;;;;;22.13;7.43;;;8.80;99.90;;;;;;4976671;28;20240;-68
2022/12/22 12:22:49;;;;;;;18.95;7.30;;;8.80;99.90;;;;;;4951505;23;20244;-68
2022/12/22 12:25:28;;;;;;;14.10;7.03;;;8.80;99.90;;;;;;4959304;28;20321;-68
2022/12/22 12:28:17;;;;;;;15.43;6.63;;;8.80;99.90;;;;;;4991036;28;20317;-68
2022/12/22 12:30:52;;;;;;;19.07;6.17;;;8.90;99.90;;;;;;4981960;28;20222;-69
2022/12/22 12:33:27;;;;;;;15.57;6.25;;;8.80;99.90;;;;;;4977123;28;20234;-69
2022/12/22 12:36:04;;;;;;;14.83;6.23;;;8.80;99.90;;;;;;4977453;28;20333;-69
2022/12/22 12:38:40;;;;;;;12.83;5.83;;;8.80;99.90;;;;;;4965167;28;20241;-69
2022/12/22 12:41:13;;;;;;;15.73;6.37;;;8.70;99.90;;;;;;4968098;28;20233;-69
2022/12/22 12:43:41;;;;;;;15.93;6.00;;;8.70;99.90;;;;;;4982283;28;20316;-68
2022/12/22 12:46:45;;;;;;;11.37;5.83;;;8.60;99.90;;;;;;4991692;28;21182;-68
2022/12/22 12:49:50;;;;;;;17.13;6.30;;;8.60;99.90;;;;;;4991408;28;20226;-68
2022/12/22 12:52:18;;;;;;;17.30;5.97;;;8.60;99.90;;;;;;4968419;28;20250;-69
2022/12/22 12:54:46;;;;;;;12.43;5.22;;;8.60;99.90;;;;;;4979417;28;20676;-69
2022/12/22 12:57:27;;;;;;;13.63;5.20;;;8.60;99.90;;;;;;4961134;28;20233;-69
2022/12/22 12:59:56;;;;;;;14.30;4.38;;;8.50;99.90;;;;;;4993217;28;20222;-69
2022/12/22 13:02:38;;;;;;;11.87;4.77;;;8.50;99.90;;;;;;4992052;28;20342;-69
2022/12/22 13:05:35;;;;;;;13.97;5.23;;;8.50;99.90;;;;;;4976997;28;20226;-68
2022/12/22 13:08:25;;;;;;;11.33;4.83;;;8.40;99.90;;;;;;4979538;28;20230;-69
2022/12/22 13:11:32;;;;;;;17.87;5.23;;;8.40;99.90;;;;;;4941321;28;20950;-69
2022/12/22 13:14:00;;;;;;;10.73;5.00;;;8.40;99.90;;;;;;4945954;28;20244;-69
2022/12/22 13:16:30;;;;;;;13.70;5.30;;;8.40;99.90;;;;;;4990662;28;20226;-69
2022/12/22 13:18:58;;;;;;;11.93;4.53;;;8.40;99.90;;;;;;4976462;28;20226;-69
2022/12/22 13:21:29;;;;;;;14.73;5.10;;;8.40;99.90;;;;;;4988261;28;20238;-68
2022/12/22 13:24:02;;;;;;;10.50;5.40;;;8.40;99.90;;;;;;4985452;28;21366;-69
2022/12/22 13:26:33;;;;;;;15.23;5.10;;;8.40;99.90;;;;;;4972165;28;20232;-69
2022/12/22 13:29:02;;;;;;;13.60;4.73;;;8.40;99.90;;;;;;4974702;28;20223;-69
2022/12/22 13:31:32;;;;;;;10.63;5.20;;;8.40;99.90;;;;;;4974229;28;20224;-69
2022/12/22 13:34:06;;;;;;;12.50;4.80;;;8.40;99.90;;;;;;4992175;28;20216;-69
2022/12/22 13:36:34;;;;;;;8.90;5.03;;;8.30;99.90;;;;;;4981480;28;20230;-69
2022/12/22 13:39:04;;;;;;;8.07;4.00;;;8.30;99.90;;;;;;5009408;23;20248;-69
2022/12/22 13:41:33;;;;;;;10.43;5.30;;;8.30;99.90;;;;;;4967178;28;20277;-69
2022/12/22 13:44:04;;;;;;;12.07;5.77;;;8.20;99.90;;;;;;5013381;28;20221;-68
2022/12/22 13:46:33;;;;;;;11.57;4.50;;;8.10;99.90;;;;;;4976918;28;20225;-69
2022/12/22 13:49:03;;;;;;;14.30;4.30;;;8.10;99.90;;;;;;5000754;28;20228;-70
2022/12/22 13:51:34;;;;;;;10.23;4.73;;;8.10;99.90;;;;;;4986915;28;22698;-69
2022/12/22 13:54:09;;;;;;;12.30;5.33;;;8.10;99.90;;;;;;5010894;28;20800;-67
2022/12/22 13:56:39;;;;;;;16.17;5.17;;;8.10;99.90;;;;;;4972089;28;20220;-67
2022/12/22 13:59:27;;;;;;;9.67;4.13;;;8.10;99.90;;;;;;5014563;28;20221;-67
2022/12/22 14:01:58;;;;;;;11.43;5.03;;;8.10;99.90;;;;;;4972925;28;21104;-69
2022/12/22 14:04:26;;;;;;;11.30;4.10;;;7.90;99.90;;;;;;5001669;28;20241;-68
2022/12/22 14:06:53;;;;;;;10.10;4.67;;;7.90;99.90;;;;;;4997123;28;20251;-68
2022/12/22 14:09:23;;;;;;;7.23;4.13;;;8.00;99.90;;;;;;5010699;28;20564;-69
2022/12/22 14:11:54;;;;;;;10.07;4.27;;;7.90;99.90;;;;;;4987623;28;20226;-68
2022/12/22 14:14:25;;;;;;;10.10;4.00;;;7.90;99.90;;;;;;4999426;28;20236;-68
2022/12/22 14:16:54;;;;;;;8.10;4.37;;;7.80;99.90;;;;;;4976575;28;20875;-68
2022/12/22 14:19:23;;;;;;;6.87;4.20;;;7.80;99.90;;;;;;5018216;28;21416;-68
2022/12/22 14:22:05;;;;;;;10.47;4.40;;;7.80;99.90;;;;;;4997614;28;21107;-68
2022/12/22 14:24:37;;;;;;;10.60;3.90;;;7.70;99.90;;;;;;5017540;28;20225;-68
2022/12/22 14:27:04;;;;;;;8.50;3.90;;;7.60;99.90;;;;;;5005274;28;20499;-68
2022/12/22 14:29:31;;;;;;;12.40;4.20;;;7.60;99.90;;;;;;5011581;28;20226;-68
2022/12/22 14:32:01;;;;;;;9.43;4.17;;;7.60;99.90;;;;;;4986951;28;20231;-68
2022/12/22 14:34:30;;;;;;;8.07;4.17;;;7.50;99.90;;;;;;5020304;28;20280;-68
2022/12/22 14:36:57;;;;;;;10.77;5.00;;;7.50;99.90;;;;;;5007381;28;20221;-69
2022/12/22 14:39:25;;;;;;;10.83;4.73;;;7.50;99.90;;;;;;4999272;28;20222;-68
2022/12/22 14:41:56;;;;;;;9.17;4.63;;;7.50;99.90;;;;;;5006987;28;20201;-69
2022/12/22 14:44:25;;;;;;;12.13;4.50;;;7.50;99.90;;;;;;4992126;28;20616;-69
2022/12/22 14:47:14;;;;;;;11.17;4.67;;;7.50;99.90;;;;;;4980290;28;20702;-69
2022/12/22 14:49:48;;;;;;;12.93;4.57;;;7.50;99.90;;;;;;5013956;28;20221;-69
2022/12/22 14:52:21;;;;;;;14.73;5.03;;;7.40;99.90;;;;;;5002746;28;20845;-69
2022/12/22 14:54:49;;;;;;;9.03;4.50;;;7.40;99.90;;;;;;5014128;28;20221;-68
2022/12/22 14:57:24;;;;;;;10.37;4.53;;;7.40;99.90;;;;;;5005565;28;20240;-69
2022/12/22 15:00:00;;;;;;;10.77;4.03;;;7.40;99.90;;;;;;5002682;28;20220;-68
2022/12/22 15:02:30;;;;;;;10.60;5.03;;;7.40;99.90;;;;;;4973683;28;20232;-68
2022/12/22 15:05:15;;;;;;;15.53;5.83;;;7.40;99.90;;;;;;5010483;28;20225;-68
2022/12/22 15:07:47;;;;;;;16.63;5.33;;;7.40;99.90;;;;;;4978827;28;20225;-69
2022/12/22 15:10:14;;;;;;;9.37;4.83;;;7.30;99.90;;;;;;5018151;28;20226;-68
2022/12/22 15:12:43;;;;;;;9.17;4.63;;;7.40;99.90;;;;;;5005319;28;20221;-69
2022/12/22 15:15:16;;;;;;;12.80;4.23;;;7.40;99.90;;;;;;5001888;28;20221;-68
2022/12/22 15:17:45;;;;;;;9.97;5.00;;;7.50;99.90;;;;;;4986233;28;20234;-69
2022/12/22 15:20:17;;;;;;;8.90;4.00;;;7.50;99.90;;;;;;5006204;28;20222;-68
2022/12/22 15:22:44;;;;;;;15.07;5.27;;;7.50;99.90;;;;;;4994355;28;20623;-69
2022/12/22 15:25:16;;;;;;;7.73;4.50;;;7.50;99.90;;;;;;5006273;28;20224;-69
2022/12/22 15:27:45;;;;;;;10.00;4.17;;;7.50;99.90;;;;;;5001155;28;20232;-69
2022/12/22 15:30:15;;;;;;;15.77;4.90;;;7.50;99.90;;;;;;4987011;28;20237;-69
2022/12/22 15:32:42;;;;;;;15.80;4.53;;;7.50;99.90;;;;;;4965245;28;20921;-69
2022/12/22 15:35:17;;;;;;;12.73;4.40;;;7.60;99.90;;;;;;5009907;28;20466;-69
2022/12/22 15:37:44;;;;;;;9.27;4.37;;;7.60;99.90;;;;;;4995255;28;20225;-69
2022/12/22 15:40:19;;;;;;;8.63;3.97;;;7.60;99.90;;;;;;5004423;28;20237;-68
2022/12/22 15:42:48;;;;;;;10.50;4.17;;;7.60;99.90;;;;;;5003808;28;20236;-69
2022/12/22 15:45:16;;;;;;;12.73;4.73;;;7.60;99.90;;;;;;4985376;28;20309;-69
2022/12/22 15:47:44;;;;;;;11.80;4.77;;;7.60;99.90;;;;;;4957595;28;20233;-68
2022/12/22 15:50:17;;;;;;;10.33;4.67;;;7.60;99.90;;;;;;5009909;28;20225;-69
2022/12/22 15:52:48;;;;;;;9.87;4.80;;;7.60;99.90;;;;;;5018039;28;20221;-69
2022/12/22 15:55:17;;;;;;;12.90;5.13;;;7.60;99.90;;;;;;4994373;28;20426;-69
2022/12/22 15:57:44;;;;;;;10.80;4.70;;;7.60;99.90;;;;;;5011907;28;20222;-68
2022/12/22 16:00:14;;;;;;;10.23;5.03;;;7.60;99.90;;;;;;4999411;28;20232;-69
2022/12/22 16:02:40;;;;;;;9.27;4.73;;;7.60;99.90;;;;;;4979050;28;20233;-68
2022/12/22 16:05:08;;;;;;;13.20;4.83;;;7.60;99.90;;;;;;5016219;28;20222;-68
2022/12/22 16:07:36;;;;;;;10.13;5.03;;;7.60;99.90;;;;;;5010540;28;20237;-69
2022/12/22 16:10:03;;;;;;;7.37;4.67;;;7.60;99.90;;;;;;4993455;28;20225;-68
2022/12/22 16:12:31;;;;;;;7.53;4.40;;;7.60;99.90;;;;;;5004257;28;20248;-69
2022/12/22 16:15:00;;;;;;;8.20;4.10;;;7.60;99.90;;;;;;4989796;28;20662;-69
2022/12/22 16:17:30;;;;;;;10.57;4.97;;;7.60;99.90;;;;;;4995814;28;20587;-69
2022/12/22 16:19:58;;;;;;;9.00;4.60;;;7.60;99.90;;;;;;4972416;28;22999;-69
2022/12/22 16:22:32;;;;;;;12.63;4.67;;;7.60;99.90;;;;;;5011740;28;20234;-69
2022/12/22 16:25:00;;;;;;;17.20;5.27;;;7.60;99.90;;;;;;4989640;28;20241;-69
2022/12/22 16:27:28;;;;;;;8.13;4.37;;;7.60;99.90;;;;;;5007150;28;20214;-69
2022/12/22 16:29:55;;;;;;;11.40;5.13;;;7.60;99.90;;;;;;5008773;28;20221;-69
2022/12/22 16:32:24;;;;;;;13.83;4.60;;;7.60;99.90;;;;;;4989234;28;20715;-68
2022/12/22 16:34:53;;;;;;;11.70;4.70;;;7.60;99.90;;;;;;4974746;28;20226;-68
2022/12/22 16:37:20;;;;;;;12.97;5.13;;;7.60;99.90;;;;;;5009311;28;20225;-68
2022/12/22 16:39:47;;;;;;;14.20;5.20;;;7.60;99.90;;;;;;4977165;28;20238;-68
2022/12/22 16:42:16;;;;;;;12.43;5.17;;;7.60;99.90;;;;;;4997739;28;20687;-68